To NAV CANADA Home Page Login to a new session Search on AWWS site Feedback and Comments Disclaimer Vers la page française équivalente Tips FAQ What's new on the site To the Forecasts and Observations / NOTAM section To "File a Flight Plan" website Publications and other links Update of the User's profile FIC Telephone Numbers My Weather Data Folder Route Weather Data Regional Weather Data Local Weather Data To the Forecasts and Observations / NOTAM section
Request Generated 03/02/2015 at 07:17:14 UTC . Weather information available at that time is displayed.

METAR/TAF

FORT ST. JOHN/BC    

METAR CYXJ 020700Z 33014G20KT 15SM BKN025 OVC090 M04/M09 A3015 RMK
SC5AC3 SLP253=
METAR CYXJ 020600Z 34010KT 15SM FEW023 BKN100 M04/M09 A3013 RMK
SC2AC5 SLP245=
METAR CYXJ 020500Z 35020G26KT 15SM FEW030 BKN110 M03/M09 A3009 RMK
SC2AC5 SLP233=

TAF CYXJ 020638Z 0207/0219 34010KT P6SM FEW050 BKN100
BECMG 0209/0211 SCT100
RMK NXT FCST BY 021300Z=
Your time UTC time
Weather data provided by Environment Canada and NAV CANADA